createdAt,value
2022-12-24T00:01:02.038Z,95553.84
2022-12-24T00:03:29.512Z,95557.06
2022-12-24T00:05:56.753Z,95564.22
2022-12-24T00:08:23.927Z,95567.38
2022-12-24T00:10:51.860Z,95561.97
2022-12-24T00:13:19.281Z,95553.88
2022-12-24T00:15:48.722Z,95552.97
2022-12-24T00:18:15.888Z,95548.28
2022-12-24T00:20:47.043Z,95550.03
2022-12-24T00:23:14.318Z,95558.13
2022-12-24T00:25:41.521Z,95571.53
2022-12-24T00:28:08.622Z,95575.06
2022-12-24T00:30:37.656Z,95578.28
2022-12-24T00:33:06.698Z,95574.72
2022-12-24T00:35:34.438Z,95566.00
2022-12-24T00:38:01.781Z,95565.38
2022-12-24T00:40:28.908Z,95577.94
2022-12-24T00:42:56.293Z,95578.97
2022-12-24T00:45:23.379Z,95560.94
2022-12-24T00:47:50.719Z,95562.59
2022-12-24T00:50:19.538Z,95567.03
2022-12-24T00:52:46.659Z,95562.75
2022-12-24T00:55:13.842Z,95559.53
2022-12-24T00:57:41.100Z,95562.34
2022-12-24T01:00:09.945Z,95563.78
2022-12-24T01:02:37.253Z,95576.72
2022-12-24T01:05:05.400Z,95587.22
2022-12-24T01:07:34.320Z,95582.75
2022-12-24T01:10:01.535Z,95586.19
2022-12-24T01:12:28.799Z,95595.13
2022-12-24T01:14:55.979Z,95593.50
2022-12-24T01:17:23.220Z,95590.66
2022-12-24T01:19:50.798Z,95588.81
2022-12-24T01:22:18.102Z,95587.00
2022-12-24T01:24:46.875Z,95578.97
2022-12-24T01:27:14.079Z,95578.97
2022-12-24T01:29:41.446Z,95597.19
2022-12-24T01:32:08.884Z,95597.19
2022-12-24T01:34:36.159Z,95598.19
2022-12-24T01:37:03.453Z,95592.34
2022-12-24T01:39:30.639Z,95607.38
2022-12-24T01:41:59.739Z,95612.66
2022-12-24T01:44:35.676Z,95621.75
2022-12-24T01:47:11.546Z,95624.38
2022-12-24T01:49:44.961Z,95631.69
2022-12-24T01:52:17.138Z,95634.28
2022-12-24T01:54:50.473Z,95618.25
2022-12-24T01:57:23.867Z,95636.09
2022-12-24T01:59:56.985Z,95637.44
2022-12-24T02:02:25.701Z,95658.00
2022-12-24T02:05:02.014Z,95649.81
2022-12-24T02:07:29.554Z,95650.44
2022-12-24T02:09:59.473Z,95646.22
2022-12-24T02:12:32.270Z,95648.16
2022-12-24T02:15:00.586Z,95659.09
2022-12-24T02:17:35.556Z,95647.31
2022-12-24T02:20:53.174Z,95634.72
2022-12-24T02:23:52.928Z,95623.53
2022-12-24T02:26:41.651Z,95627.25
2022-12-24T02:29:35.552Z,95640.84
2022-12-24T02:32:10.957Z,95640.69
2022-12-24T02:34:46.121Z,95643.91
2022-12-24T02:37:22.323Z,95640.91
2022-12-24T02:39:57.514Z,95644.69
2022-12-24T02:42:31.426Z,95645.56
2022-12-24T02:45:05.036Z,95643.41
2022-12-24T02:47:34.492Z,95638.16
2022-12-24T02:50:02.700Z,95619.25
2022-12-24T02:52:32.283Z,95617.59
2022-12-24T02:55:03.570Z,95615.34
2022-12-24T02:57:44.857Z,95617.22
2022-12-24T03:00:17.042Z,95632.28
2022-12-24T03:03:05.732Z,95636.09
2022-12-24T03:05:45.535Z,95627.50
2022-12-24T03:08:26.474Z,95609.19
2022-12-24T03:10:58.044Z,95609.09
2022-12-24T03:13:27.538Z,95617.69
2022-12-24T03:15:54.891Z,95613.38
2022-12-24T03:18:26.957Z,95617.72
2022-12-24T03:21:00.612Z,95615.00
2022-12-24T03:23:28.156Z,95617.06
2022-12-24T03:25:55.692Z,95620.72
2022-12-24T03:28:28.289Z,95613.56
2022-12-24T03:30:55.695Z,95611.59
2022-12-24T03:33:24.261Z,95608.31
2022-12-24T03:35:51.541Z,95598.31
2022-12-24T03:38:18.627Z,95589.59
2022-12-24T03:40:45.678Z,95590.75
2022-12-24T03:43:12.877Z,95602.78
2022-12-24T03:45:40.141Z,95602.44
2022-12-24T03:48:07.669Z,95611.28
2022-12-24T03:50:36.316Z,95609.22
2022-12-24T03:53:03.433Z,95610.94
2022-12-24T03:55:30.555Z,95610.25
2022-12-24T03:57:57.826Z,95615.50
2022-12-24T04:00:25.148Z,95619.03
2022-12-24T04:02:52.359Z,95618.69
2022-12-24T04:05:21.276Z,95624.47
2022-12-24T04:07:49.798Z,95623.06
2022-12-24T04:10:17.332Z,95606.84
2022-12-24T04:12:44.426Z,95604.38
2022-12-24T04:15:12.093Z,95606.44
2022-12-24T04:17:39.240Z,95623.66
2022-12-24T04:20:08.216Z,95628.19
2022-12-24T04:22:35.584Z,95629.66
2022-12-24T04:25:04.635Z,95621.75
2022-12-24T04:27:31.826Z,95614.28
2022-12-24T04:29:58.907Z,95625.84
2022-12-24T04:32:26.586Z,95630.66
2022-12-24T04:34:53.687Z,95625.41
2022-12-24T04:37:20.810Z,95627.44
2022-12-24T04:39:47.903Z,95618.97
2022-12-24T04:42:16.443Z,95616.78
2022-12-24T04:44:43.483Z,95604.19
2022-12-24T04:47:10.624Z,95605.06
2022-12-24T04:49:37.747Z,95598.09
2022-12-24T04:52:05.440Z,95608.56
2022-12-24T04:54:32.567Z,95608.66
2022-12-24T04:56:59.761Z,95607.72
2022-12-24T04:59:28.325Z,95601.03
2022-12-24T05:01:55.538Z,95609.94
2022-12-24T05:04:22.764Z,95610.50
2022-12-24T05:06:49.949Z,95615.59
2022-12-24T05:09:17.025Z,95615.50
2022-12-24T05:11:44.447Z,95608.09
2022-12-24T05:14:11.808Z,95617.41
2022-12-24T05:16:40.458Z,95614.19
2022-12-24T05:19:07.588Z,95609.81
2022-12-24T05:21:34.704Z,95608.72
2022-12-24T05:24:01.846Z,95616.97
2022-12-24T05:26:32.455Z,95627.53
2022-12-24T05:29:01.349Z,95619.34
2022-12-24T05:31:30.677Z,95621.38
2022-12-24T05:33:59.489Z,95624.16
2022-12-24T05:36:26.693Z,95624.69
2022-12-24T05:38:54.015Z,95626.72
2022-12-24T05:41:21.282Z,95626.16
2022-12-24T05:43:49.076Z,95630.75
2022-12-24T05:46:18.527Z,95636.22
2022-12-24T05:48:46.269Z,95628.03
2022-12-24T05:51:16.209Z,95635.75
2022-12-24T05:53:43.229Z,95630.63
2022-12-24T05:56:12.952Z,95633.97
2022-12-24T05:58:41.652Z,95630.56
2022-12-24T06:01:10.402Z,95643.75
2022-12-24T06:03:38.230Z,95646.88
2022-12-24T06:06:08.385Z,95647.75
2022-12-24T06:08:38.434Z,95651.78
2022-12-24T06:11:09.530Z,95645.69
2022-12-24T06:13:38.035Z,95641.22
2022-12-24T06:16:08.035Z,95628.25
2022-12-24T06:18:36.927Z,95638.31
2022-12-24T06:21:05.713Z,95636.03
2022-12-24T06:23:37.607Z,95650.00
2022-12-24T06:26:07.105Z,95650.00
2022-12-24T06:28:37.060Z,95646.50
2022-12-24T06:31:06.486Z,95653.88
2022-12-24T06:33:35.167Z,95655.28
2022-12-24T06:36:02.435Z,95655.28
2022-12-24T06:38:30.967Z,95664.59
2022-12-24T06:40:59.679Z,95674.25
2022-12-24T06:43:26.819Z,95681.94
2022-12-24T06:45:53.925Z,95677.91
2022-12-24T06:48:21.040Z,95674.25
2022-12-24T06:50:48.331Z,95670.97
2022-12-24T06:53:15.446Z,95645.50
2022-12-24T06:55:42.792Z,95645.78
2022-12-24T06:58:11.383Z,95654.63
2022-12-24T07:00:38.914Z,95630.53
2022-12-24T07:03:06.107Z,95636.41
2022-12-24T07:05:33.433Z,95637.13
2022-12-24T07:08:00.567Z,95646.44
2022-12-24T07:10:27.763Z,95648.41
2022-12-24T07:12:54.993Z,95662.03
2022-12-24T07:15:23.531Z,95679.47
2022-12-24T07:17:50.743Z,95674.78
2022-12-24T07:20:18.297Z,95671.31
2022-12-24T07:22:45.696Z,95669.50
2022-12-24T07:25:12.949Z,95671.56
2022-12-24T07:27:40.079Z,95669.13
2022-12-24T07:30:08.955Z,95678.72
2022-12-24T07:32:37.544Z,95665.19
2022-12-24T07:35:05.510Z,95659.09
2022-12-24T07:37:32.664Z,95661.38
2022-12-24T07:39:59.861Z,95656.91
2022-12-24T07:42:27.373Z,95639.03
2022-12-24T07:44:54.534Z,95641.22
2022-12-24T07:47:21.698Z,95662.09
2022-12-24T07:49:50.612Z,95669.00
2022-12-24T07:52:17.831Z,95674.03
2022-12-24T07:54:45.060Z,95677.09
2022-12-24T07:57:12.307Z,95671.41
2022-12-24T07:59:39.504Z,95670.97
2022-12-24T08:02:11.085Z,95670.63
2022-12-24T08:04:41.772Z,95670.06
2022-12-24T08:07:10.489Z,95678.88
2022-12-24T08:09:38.891Z,95675.06
2022-12-24T08:12:06.518Z,95688.03
2022-12-24T08:14:33.804Z,95677.47
2022-12-24T08:17:00.866Z,95696.44
2022-12-24T08:19:27.948Z,95691.59
2022-12-24T08:21:55.096Z,95687.00
2022-12-24T08:24:23.757Z,95700.38
2022-12-24T08:26:50.929Z,95695.69
2022-12-24T08:29:18.096Z,95691.19
2022-12-24T08:31:45.298Z,95690.94
2022-12-24T08:34:12.493Z,95690.72
2022-12-24T08:36:39.767Z,95693.41
2022-12-24T08:39:06.913Z,95703.53
2022-12-24T08:41:36.114Z,95704.72
2022-12-24T08:44:03.549Z,95699.28
2022-12-24T08:46:30.756Z,95702.94
2022-12-24T08:48:57.989Z,95694.09
2022-12-24T08:51:25.075Z,95707.00
2022-12-24T08:53:52.247Z,95701.41
2022-12-24T08:56:19.458Z,95702.50
2022-12-24T08:58:48.033Z,95699.22
2022-12-24T09:01:17.627Z,95713.56
2022-12-24T09:03:45.903Z,95702.44
2022-12-24T09:06:13.639Z,95697.75
2022-12-24T09:08:41.469Z,95694.75
2022-12-24T09:11:11.775Z,95693.34
2022-12-24T09:13:39.845Z,95693.59
2022-12-24T09:16:09.137Z,95689.56
2022-12-24T09:18:37.015Z,95684.34
2022-12-24T09:21:07.879Z,95690.44
2022-12-24T09:23:36.304Z,95698.34
2022-12-24T09:26:05.861Z,95698.56
2022-12-24T09:28:33.017Z,95703.59
2022-12-24T09:31:01.840Z,95720.16
2022-12-24T09:33:33.280Z,95708.75
2022-12-24T09:36:00.653Z,95701.91
2022-12-24T09:38:28.071Z,95700.38
2022-12-24T09:40:56.972Z,95698.78
2022-12-24T09:43:26.734Z,95706.28
2022-12-24T09:46:10.051Z,95695.09
2022-12-24T09:48:44.731Z,95694.81
2022-12-24T09:51:19.872Z,95703.59
2022-12-24T09:53:53.618Z,95705.00
2022-12-24T09:56:27.387Z,95699.88
2022-12-24T09:58:59.897Z,95705.66
2022-12-24T10:01:30.873Z,95708.88
2022-12-24T10:04:04.349Z,95703.19
2022-12-24T10:06:40.855Z,95694.50
2022-12-24T10:09:18.962Z,95705.22
2022-12-24T10:11:56.716Z,95706.81
2022-12-24T10:14:42.423Z,95710.03
2022-12-24T10:17:36.875Z,95710.03
2022-12-24T10:20:26.244Z,95704.19
2022-12-24T10:23:04.621Z,95703.13
2022-12-24T10:25:42.085Z,95697.75
2022-12-24T10:28:15.920Z,95698.84
2022-12-24T10:30:47.829Z,95689.47
2022-12-24T10:33:21.050Z,95694.25
2022-12-24T10:35:55.206Z,95693.72
2022-12-24T10:38:22.451Z,95691.31
2022-12-24T10:40:53.667Z,95688.97
2022-12-24T10:43:23.464Z,95676.72
2022-12-24T10:45:53.934Z,95675.59
2022-12-24T10:48:28.171Z,95679.03
2022-12-24T10:51:02.736Z,95677.81
2022-12-24T10:53:40.588Z,95684.91
2022-12-24T10:56:11.453Z,95688.88
2022-12-24T10:58:44.787Z,95684.00
2022-12-24T11:01:12.484Z,95693.56
2022-12-24T11:03:40.158Z,95683.34
2022-12-24T11:06:12.406Z,95673.91
2022-12-24T11:08:41.826Z,95665.75
2022-12-24T11:11:12.801Z,95670.88
2022-12-24T11:13:44.968Z,95667.75
2022-12-24T11:16:25.114Z,95655.19
2022-12-24T11:18:56.581Z,95652.53
2022-12-24T11:21:28.662Z,95648.16
2022-12-24T11:23:58.798Z,95657.97
2022-12-24T11:26:29.826Z,95666.41
2022-12-24T11:29:14.764Z,95662.38
2022-12-24T11:31:44.529Z,95650.19
2022-12-24T11:34:29.961Z,95659.91
2022-12-24T11:37:14.990Z,95652.84
2022-12-24T11:39:52.599Z,95652.47
2022-12-24T11:42:32.492Z,95659.56
2022-12-24T11:45:03.033Z,95655.22
2022-12-24T11:47:36.940Z,95655.22
2022-12-24T11:50:26.483Z,95647.50
2022-12-24T11:53:05.216Z,95649.81
2022-12-24T11:55:44.123Z,95651.63
2022-12-24T11:58:26.073Z,95650.13
2022-12-24T12:01:03.114Z,95650.88
2022-12-24T12:03:35.633Z,95653.69
2022-12-24T12:06:14.079Z,95644.13
2022-12-24T12:08:44.842Z,95654.44
2022-12-24T12:11:14.885Z,95652.81
2022-12-24T12:13:45.583Z,95649.09
2022-12-24T12:16:21.886Z,95648.28
2022-12-24T12:18:57.777Z,95646.53
2022-12-24T12:21:38.734Z,95647.00
2022-12-24T12:24:18.739Z,95638.84
2022-12-24T12:26:49.286Z,95635.63
2022-12-24T12:29:29.002Z,95628.91
2022-12-24T12:32:04.896Z,95616.53
2022-12-24T12:34:40.442Z,95623.22
2022-12-24T12:37:15.311Z,95618.97
2022-12-24T12:39:44.180Z,95623.22
2022-12-24T12:42:22.261Z,95627.44
2022-12-24T12:45:03.632Z,95633.03
2022-12-24T12:47:54.677Z,95634.19
2022-12-24T12:50:31.347Z,95633.97
2022-12-24T12:53:20.280Z,95629.38
2022-12-24T12:56:00.564Z,95615.38
2022-12-24T12:58:34.577Z,95622.47
2022-12-24T13:01:11.563Z,95619.53
2022-12-24T13:04:05.448Z,95625.56
2022-12-24T13:07:07.020Z,95628.53
2022-12-24T13:10:03.759Z,95623.06
2022-12-24T13:12:56.712Z,95629.88
2022-12-24T13:16:01.482Z,95616.59
2022-12-24T13:18:54.460Z,95620.63
2022-12-24T13:21:25.255Z,95627.16
2022-12-24T13:24:06.697Z,95617.41
2022-12-24T13:26:34.498Z,95615.69
2022-12-24T13:29:40.518Z,95622.78
2022-12-24T13:32:50.860Z,95617.53
2022-12-24T13:35:37.826Z,95624.41
2022-12-24T13:38:33.386Z,95617.44
2022-12-24T13:41:40.934Z,95610.31
2022-12-24T13:44:31.049Z,95612.03
2022-12-24T13:47:04.368Z,95615.34
2022-12-24T13:49:36.255Z,95620.38
2022-12-24T13:52:25.298Z,95623.50
2022-12-24T13:55:15.858Z,95625.84
2022-12-24T13:57:52.591Z,95630.41
2022-12-24T14:00:41.554Z,95625.03
2022-12-24T14:03:26.997Z,95629.03
2022-12-24T14:05:59.929Z,95627.06
2022-12-24T14:08:34.910Z,95628.53
2022-12-24T14:11:15.350Z,95625.13
2022-12-24T14:14:09.891Z,95616.16
2022-12-24T14:16:49.284Z,95615.56
2022-12-24T14:19:22.861Z,95621.56
2022-12-24T14:22:01.275Z,95615.59
2022-12-24T14:24:34.385Z,95620.97
2022-12-24T14:27:14.706Z,95622.44
2022-12-24T14:29:51.151Z,95622.53
2022-12-24T14:32:19.517Z,95624.38
2022-12-24T14:35:10.262Z,95627.81
2022-12-24T14:37:38.460Z,95626.22
2022-12-24T14:40:08.037Z,95621.38
2022-12-24T14:42:49.940Z,95621.03
2022-12-24T14:45:31.883Z,95626.59
2022-12-24T14:48:12.102Z,95632.69
2022-12-24T14:50:57.795Z,95635.34
2022-12-24T14:53:43.935Z,95623.84
2022-12-24T14:56:16.291Z,95622.91
2022-12-24T14:58:44.966Z,95627.59
2022-12-24T15:01:22.745Z,95630.09
2022-12-24T15:04:05.282Z,95636.59
2022-12-24T15:06:37.201Z,95633.59
2022-12-24T15:09:06.266Z,95639.94
2022-12-24T15:11:33.701Z,95646.22
2022-12-24T15:14:01.204Z,95640.34
2022-12-24T15:16:33.077Z,95634.72
2022-12-24T15:19:04.003Z,95639.19
2022-12-24T15:21:36.810Z,95635.72
2022-12-24T15:24:04.601Z,95636.78
2022-12-24T15:26:33.824Z,95637.47
2022-12-24T15:29:03.539Z,95642.34
2022-12-24T15:31:32.008Z,95638.00
2022-12-24T15:33:59.891Z,95640.22
2022-12-24T15:36:31.424Z,95634.56
2022-12-24T15:39:04.022Z,95640.63
2022-12-24T15:41:39.132Z,95638.22
2022-12-24T15:44:06.402Z,95630.09
2022-12-24T15:46:33.781Z,95639.81
2022-12-24T15:49:03.882Z,95651.19
2022-12-24T15:51:37.818Z,95643.94
2022-12-24T15:54:19.481Z,95645.31
2022-12-24T15:56:46.891Z,95653.22
2022-12-24T15:59:28.621Z,95652.53
2022-12-24T16:01:56.292Z,95661.00
2022-12-24T16:04:25.963Z,95663.84
2022-12-24T16:06:56.084Z,95657.41
2022-12-24T16:09:42.537Z,95655.94
2022-12-24T16:12:20.738Z,95653.88
2022-12-24T16:14:52.785Z,95661.91
2022-12-24T16:17:23.261Z,95662.09
2022-12-24T16:19:55.280Z,95651.78
2022-12-24T16:22:24.163Z,95657.28
2022-12-24T16:24:52.847Z,95661.31
2022-12-24T16:27:20.763Z,95671.84
2022-12-24T16:29:48.406Z,95672.84
2022-12-24T16:32:29.761Z,95673.38
2022-12-24T16:34:57.292Z,95668.09
2022-12-24T16:37:24.824Z,95668.34
2022-12-24T16:39:53.381Z,95662.47
2022-12-24T16:42:20.618Z,95665.97
2022-12-24T16:44:48.472Z,95659.06
2022-12-24T16:47:20.723Z,95656.66
2022-12-24T16:49:48.645Z,95657.81
2022-12-24T16:52:18.882Z,95661.28
2022-12-24T16:54:46.229Z,95658.47
2022-12-24T16:57:15.013Z,95660.91
2022-12-24T16:59:42.265Z,95663.31
2022-12-24T17:02:15.347Z,95661.69
2022-12-24T17:04:43.920Z,95664.31
2022-12-24T17:07:11.822Z,95665.34
2022-12-24T17:09:39.078Z,95660.78
2022-12-24T17:12:07.181Z,95676.25
2022-12-24T17:14:36.068Z,95679.72
2022-12-24T17:17:03.385Z,95671.00
2022-12-24T17:19:30.702Z,95680.13
2022-12-24T17:21:57.841Z,95682.56
2022-12-24T17:24:25.124Z,95687.47
2022-12-24T17:26:52.382Z,95688.72
2022-12-24T17:29:19.568Z,95687.69
2022-12-24T17:31:48.181Z,95696.19
2022-12-24T17:34:15.555Z,95690.91
2022-12-24T17:36:43.071Z,95694.34
2022-12-24T17:39:10.321Z,95695.34
2022-12-24T17:41:37.493Z,95696.41
2022-12-24T17:44:04.904Z,95694.00
2022-12-24T17:46:32.182Z,95693.41
2022-12-24T17:49:01.018Z,95697.03
2022-12-24T17:51:28.195Z,95701.31
2022-12-24T17:53:55.376Z,95694.63
2022-12-24T17:56:22.540Z,95690.59
2022-12-24T17:58:49.622Z,95690.59
2022-12-24T18:01:19.478Z,95689.59
2022-12-24T18:03:49.569Z,95693.47
2022-12-24T18:06:19.818Z,95691.25
2022-12-24T18:08:47.981Z,95695.16
2022-12-24T18:11:17.341Z,95686.44
2022-12-24T18:13:45.427Z,95676.91
2022-12-24T18:16:18.575Z,95685.84
2022-12-24T18:18:46.740Z,95699.81
2022-12-24T18:21:14.605Z,95701.19
2022-12-24T18:23:45.261Z,95707.28
2022-12-24T18:26:14.023Z,95709.09
2022-12-24T18:28:42.300Z,95699.38
2022-12-24T18:31:12.558Z,95693.88
2022-12-24T18:33:41.262Z,95693.88
2022-12-24T18:36:10.904Z,95698.56
2022-12-24T18:38:38.977Z,95692.28
2022-12-24T18:41:10.744Z,95687.00
2022-12-24T18:43:38.480Z,95691.06
2022-12-24T18:46:10.203Z,95692.28
2022-12-24T18:48:38.254Z,95689.88
2022-12-24T18:51:07.056Z,95698.56
2022-12-24T18:53:35.161Z,95696.31
2022-12-24T18:56:05.172Z,95690.22
2022-12-24T18:58:34.021Z,95691.47
2022-12-24T19:01:01.145Z,95705.69
2022-12-24T19:03:28.397Z,95699.22
2022-12-24T19:06:01.479Z,95709.38
2022-12-24T19:08:56.594Z,95710.78
2022-12-24T19:11:17.400Z,95710.53
2022-12-24T19:13:47.702Z,95707.13
2022-12-24T19:16:15.754Z,95701.41
2022-12-24T19:18:43.421Z,95703.63
2022-12-24T19:21:12.531Z,95706.03
2022-12-24T19:23:39.846Z,95704.88
2022-12-24T19:26:07.476Z,95694.56
2022-12-24T19:28:34.781Z,95708.13
2022-12-24T19:31:09.888Z,95707.53
2022-12-24T19:33:42.342Z,95711.59
2022-12-24T19:36:13.000Z,95708.13
2022-12-24T19:38:40.796Z,95706.16
2022-12-24T19:41:09.547Z,95713.34
2022-12-24T19:43:40.881Z,95715.31
2022-12-24T19:46:11.819Z,95711.00
2022-12-24T19:48:39.225Z,95715.19
2022-12-24T19:51:10.110Z,95715.81
2022-12-24T19:53:39.657Z,95718.72
2022-12-24T19:56:08.523Z,95719.63
2022-12-24T19:58:36.686Z,95722.50
2022-12-24T20:01:14.916Z,95715.41
2022-12-24T20:03:45.548Z,95713.16
2022-12-24T20:06:13.459Z,95712.56
2022-12-24T20:08:41.199Z,95717.63
2022-12-24T20:11:11.871Z,95715.22
2022-12-24T20:13:40.492Z,95722.06
2022-12-24T20:16:10.131Z,95721.47
2022-12-24T20:18:37.490Z,95727.56
2022-12-24T20:21:09.422Z,95738.72
2022-12-24T20:23:38.296Z,95743.00
2022-12-24T20:26:07.594Z,95744.00
2022-12-24T20:28:36.602Z,95738.34
2022-12-24T20:31:10.178Z,95740.03
2022-12-24T20:33:37.412Z,95740.03
2022-12-24T20:36:06.745Z,95742.06
2022-12-24T20:38:34.245Z,95739.84
2022-12-24T20:41:01.588Z,95741.28
2022-12-24T20:43:34.715Z,95735.38
2022-12-24T20:46:05.350Z,95741.66
2022-12-24T20:48:33.766Z,95733.16
2022-12-24T20:51:07.465Z,95730.53
2022-12-24T20:53:35.483Z,95721.03
2022-12-24T20:56:03.670Z,95726.72
2022-12-24T20:58:31.206Z,95712.19
2022-12-24T21:00:58.539Z,95713.19
2022-12-24T21:03:26.459Z,95723.72
2022-12-24T21:05:53.720Z,95723.09
2022-12-24T21:08:22.378Z,95726.25
2022-12-24T21:10:49.563Z,95731.00
2022-12-24T21:13:17.075Z,95725.84
2022-12-24T21:15:44.334Z,95730.94
2022-12-24T21:18:11.500Z,95741.81
2022-12-24T21:20:39.998Z,95744.25
2022-12-24T21:23:07.910Z,95748.75
2022-12-24T21:25:37.445Z,95756.19
2022-12-24T21:28:05.033Z,95751.00
2022-12-24T21:30:32.291Z,95748.75
2022-12-24T21:32:59.573Z,95750.91
2022-12-24T21:35:26.796Z,95750.44
2022-12-24T21:37:53.955Z,95746.63
2022-12-24T21:40:21.154Z,95746.13
2022-12-24T21:42:49.714Z,95753.66
2022-12-24T21:45:16.901Z,95763.66
2022-12-24T21:47:43.995Z,95753.78
2022-12-24T21:50:11.756Z,95760.84
2022-12-24T21:52:39.614Z,95765.75
2022-12-24T21:55:07.303Z,95761.13
2022-12-24T21:57:34.843Z,95752.84
2022-12-24T22:00:05.014Z,95752.25
2022-12-24T22:02:32.316Z,95766.03
2022-12-24T22:04:59.697Z,95778.22
2022-12-24T22:07:28.093Z,95767.91
2022-12-24T22:09:55.202Z,95763.28
2022-12-24T22:12:22.402Z,95777.44
2022-12-24T22:14:49.686Z,95782.69
2022-12-24T22:17:24.476Z,95778.25
2022-12-24T22:19:52.152Z,95770.75
2022-12-24T22:22:19.547Z,95778.63
2022-12-24T22:24:46.640Z,95783.91
2022-12-24T22:27:13.800Z,95778.63
2022-12-24T22:29:40.981Z,95776.22
2022-12-24T22:32:08.103Z,95785.94
2022-12-24T22:34:36.686Z,95789.59
2022-12-24T22:37:03.841Z,95793.41
2022-12-24T22:39:31.041Z,95780.41
2022-12-24T22:41:58.335Z,95773.72
2022-12-24T22:44:26.015Z,95775.34
2022-12-24T22:46:53.867Z,95774.69
2022-12-24T22:49:21.036Z,95779.00
2022-12-24T22:51:49.700Z,95771.09
2022-12-24T22:54:16.899Z,95776.34
2022-12-24T22:56:44.261Z,95778.56
2022-12-24T22:59:13.696Z,95781.59
2022-12-24T23:01:43.641Z,95776.78
2022-12-24T23:04:12.722Z,95782.47
2022-12-24T23:06:40.940Z,95779.22
2022-12-24T23:09:17.261Z,95771.53
2022-12-24T23:11:45.444Z,95773.13
2022-12-24T23:14:16.880Z,95775.00
2022-12-24T23:16:44.022Z,95772.00
2022-12-24T23:19:11.642Z,95766.31
2022-12-24T23:21:38.819Z,95763.69
2022-12-24T23:24:07.042Z,95761.47
2022-12-24T23:26:36.344Z,95765.53
2022-12-24T23:29:03.862Z,95771.19
2022-12-24T23:31:32.513Z,95771.78
2022-12-24T23:33:59.664Z,95767.69
2022-12-24T23:36:26.973Z,95767.31
2022-12-24T23:38:54.435Z,95766.50
2022-12-24T23:41:21.841Z,95755.97
2022-12-24T23:43:50.442Z,95748.31
2022-12-24T23:46:19.487Z,95760.06
2022-12-24T23:48:46.903Z,95759.84
2022-12-24T23:51:16.641Z,95758.44
2022-12-24T23:53:44.470Z,95761.69
2022-12-24T23:56:13.064Z,95758.25
2022-12-24T23:58:41.814Z,95749.91
